Aérodrome :
LOGIN :

S'inscrire | Disclaimer

   EN    FR    IT 

 










Légende :    VFR   VFR Marginal   IFR   IFR Intensif   IFR Très Intensif
Visi : 
Plafond : 
>= 8 km
>= 3000ft
5 à 8 km
1000 à 3000 ft
1500m à 5 km
500 à 1000 ft
800 à 1500m
200 à 500 ft
< 800m
< 200 ft
Symboles :   Orages  Brouillard  Fortes neiges  Fortes précipitations  Vent > 20 kt
SIGMETs :   Divers  Orages  Givrage  Turbulence  Onde Orograph.  Cendres Volcan.






- Altitude de l'aérodrome : 313 ft


LFQA - Reims-Prunay

DERNIER METAR :
  • 121930Z AUTO 16016KT 9000 RA BKN018/// BKN025/// OVC037/// ///CB 05/03 Q0989

METARs EXPIRÉS :
  • 121900Z AUTO 16016KT 9999 -RA SCT028/// SCT040/// BKN047/// ///TCU 05/03 Q0989
  • 121830Z AUTO 15013KT 9999 -RA OVC028 05/03 Q0990
  • 121800Z AUTO 16015KT 9999 -DZ OVC024 05/03 Q0991
  • 121730Z AUTO 16013KT 9999 OVC022 05/03 Q0992
  • 121700Z AUTO 14010KT 9999 OVC022 05/03 Q0993

TAF N/A



MET'MAP, la Météo Aéronautique d'un coup d'oeil ! - Copyright ORBIFLY Décembre 2007 - Disclaimer

ORBIFLY MET'MAP TEAM :

Programmation & Développement : Alexandra Zaïnal
Sur une idée originale de : Baudouin d'Aumeries
Assistance à la programmation : Marc-Olivier Méhu
Soutien technique & logistique : Manuel Goepfert

Contact : metmap@orbifly.com




SOURCES & CREDITS :

   NOAA